createdAt,value
2022-11-22T00:00:42.663Z,21.50
2022-11-22T00:03:09.907Z,21.90
2022-11-22T00:05:37.101Z,19.80
2022-11-22T00:08:05.306Z,17.80
2022-11-22T00:10:32.862Z,15.90
2022-11-22T00:13:00.120Z,15.40
2022-11-22T00:15:27.524Z,15.20
2022-11-22T00:17:54.640Z,14.00
2022-11-22T00:20:21.857Z,13.90
2022-11-22T00:22:49.017Z,15.10
2022-11-22T00:25:16.282Z,14.40
2022-11-22T00:27:43.494Z,15.60
2022-11-22T00:30:11.094Z,16.80
2022-11-22T00:32:38.328Z,15.60
2022-11-22T00:35:06.130Z,16.10
2022-11-22T00:37:33.732Z,14.70
2022-11-22T00:40:00.842Z,15.10
2022-11-22T00:42:28.289Z,15.60
2022-11-22T00:44:55.502Z,15.00
2022-11-22T00:47:22.767Z,17.20
2022-11-22T00:49:49.947Z,17.60
2022-11-22T00:52:17.163Z,24.70
2022-11-22T00:54:50.111Z,18.80
2022-11-22T00:57:20.321Z,18.00
2022-11-22T00:59:47.590Z,20.10
2022-11-22T01:02:14.762Z,20.10
2022-11-22T01:04:41.924Z,19.50
2022-11-22T01:07:09.323Z,18.30
2022-11-22T01:09:36.513Z,18.20
2022-11-22T01:12:03.942Z,15.60
2022-11-22T01:14:31.091Z,15.10
2022-11-22T01:16:58.322Z,14.60
2022-11-22T01:19:25.427Z,13.10
2022-11-22T01:21:52.847Z,11.80
2022-11-22T01:24:19.986Z,12.20
2022-11-22T01:26:47.288Z,11.50
2022-11-22T01:29:15.334Z,12.00
2022-11-22T01:31:42.526Z,14.60
2022-11-22T01:34:09.811Z,16.80
2022-11-22T01:36:37.080Z,16.20
2022-11-22T01:39:04.388Z,17.50
2022-11-22T01:41:31.580Z,19.00
2022-11-22T01:43:58.796Z,18.10
2022-11-22T01:46:37.395Z,17.30
2022-11-22T01:49:17.883Z,14.90
2022-11-22T01:51:48.136Z,17.00
2022-11-22T01:54:22.684Z,17.40
2022-11-22T01:56:54.760Z,18.60
2022-11-22T01:59:26.278Z,17.80
2022-11-22T02:01:54.245Z,18.50
2022-11-22T02:04:23.922Z,19.20
2022-11-22T02:06:54.081Z,20.30
2022-11-22T02:09:22.052Z,21.80
2022-11-22T02:11:53.906Z,22.40
2022-11-22T02:14:25.702Z,22.60
2022-11-22T02:16:52.953Z,22.50
2022-11-22T02:19:42.118Z,21.50
2022-11-22T02:22:27.978Z,20.40
2022-11-22T02:25:02.581Z,21.00
2022-11-22T02:27:29.798Z,19.50
2022-11-22T02:29:56.914Z,20.30
2022-11-22T02:32:24.078Z,19.80
2022-11-22T02:34:52.071Z,20.60
2022-11-22T02:37:29.659Z,20.90
2022-11-22T02:40:00.384Z,19.40
2022-11-22T02:42:30.226Z,19.80
2022-11-22T02:44:57.366Z,20.00
2022-11-22T02:47:24.573Z,21.10
2022-11-22T02:49:53.889Z,21.30
2022-11-22T02:52:21.111Z,19.70
2022-11-22T02:54:48.239Z,20.30
2022-11-22T02:57:15.458Z,19.80
2022-11-22T02:59:42.651Z,20.00
2022-11-22T03:02:09.823Z,19.20
2022-11-22T03:04:36.983Z,18.60
2022-11-22T03:07:04.603Z,17.80
2022-11-22T03:09:32.640Z,16.80
2022-11-22T03:12:00.053Z,17.40
2022-11-22T03:14:27.301Z,18.00
2022-11-22T03:16:54.585Z,19.50
2022-11-22T03:19:21.967Z,19.40
2022-11-22T03:21:49.246Z,18.90
2022-11-22T03:24:16.811Z,18.60
2022-11-22T03:26:48.380Z,19.10
2022-11-22T03:29:17.948Z,16.30
2022-11-22T03:31:45.073Z,18.00
2022-11-22T03:34:12.864Z,18.00
2022-11-22T03:36:40.146Z,15.90
2022-11-22T03:39:07.695Z,13.20
2022-11-22T03:41:34.847Z,13.40
2022-11-22T03:44:02.199Z,14.00
2022-11-22T03:46:29.597Z,15.90
2022-11-22T03:48:56.751Z,16.90
2022-11-22T03:51:23.843Z,16.90
2022-11-22T03:53:51.043Z,16.70
2022-11-22T03:56:18.271Z,16.40
2022-11-22T03:58:45.419Z,16.80
2022-11-22T04:01:16.580Z,16.80
2022-11-22T04:03:44.175Z,16.60
2022-11-22T04:06:11.330Z,17.10
2022-11-22T04:08:38.470Z,29.30
2022-11-22T04:11:05.664Z,16.10
2022-11-22T04:13:51.169Z,15.80
2022-11-22T04:16:18.323Z,16.20
2022-11-22T04:18:45.523Z,17.30
2022-11-22T04:21:31.317Z,16.90
2022-11-22T04:24:16.696Z,17.20
2022-11-22T04:26:43.909Z,18.20
2022-11-22T04:29:11.104Z,18.60
2022-11-22T04:31:57.610Z,20.20
2022-11-22T04:34:24.821Z,20.40
2022-11-22T04:36:52.267Z,19.70
2022-11-22T04:39:19.557Z,15.10
2022-11-22T04:41:46.801Z,15.00
2022-11-22T04:44:32.583Z,14.40
2022-11-22T04:46:59.686Z,15.10
2022-11-22T04:49:27.082Z,14.60
2022-11-22T04:52:13.016Z,16.00
2022-11-22T04:54:40.178Z,13.60
2022-11-22T04:57:07.320Z,13.10
2022-11-22T04:59:34.502Z,13.90
2022-11-22T05:02:01.782Z,15.10
2022-11-22T05:04:29.019Z,15.00
2022-11-22T05:06:57.129Z,15.20
2022-11-22T05:09:24.531Z,17.20
2022-11-22T05:11:51.678Z,18.40
2022-11-22T05:14:18.794Z,18.80
2022-11-22T05:16:45.901Z,18.10
2022-11-22T05:19:13.014Z,16.80
2022-11-22T05:21:40.150Z,19.60
2022-11-22T05:24:07.617Z,21.50
2022-11-22T05:26:36.514Z,20.50
2022-11-22T05:29:06.329Z,20.40
2022-11-22T05:31:35.134Z,21.50
2022-11-22T05:34:02.290Z,20.40
2022-11-22T05:36:32.125Z,18.50
2022-11-22T05:38:59.314Z,17.80
2022-11-22T05:41:26.476Z,19.20
2022-11-22T05:43:57.447Z,18.30
2022-11-22T05:46:29.402Z,19.40
2022-11-22T05:48:58.116Z,19.00
2022-11-22T05:51:33.935Z,18.10
2022-11-22T05:54:03.033Z,18.10
2022-11-22T05:56:30.253Z,17.90
2022-11-22T05:58:57.383Z,16.70
2022-11-22T06:01:25.119Z,24.50
2022-11-22T06:03:52.813Z,15.90
2022-11-22T06:06:20.783Z,16.90
2022-11-22T06:08:48.603Z,17.10
2022-11-22T06:11:24.586Z,19.60
2022-11-22T06:13:57.649Z,20.30
2022-11-22T06:16:26.332Z,21.80
2022-11-22T06:18:54.187Z,21.30
2022-11-22T06:21:24.482Z,22.20
2022-11-22T06:23:53.775Z,24.70
2022-11-22T06:26:22.346Z,24.40
2022-11-22T06:28:50.366Z,25.30
2022-11-22T06:31:22.988Z,26.00
2022-11-22T06:33:50.521Z,24.10
2022-11-22T06:36:21.365Z,25.10
2022-11-22T06:38:48.894Z,24.00
2022-11-22T06:41:18.760Z,25.90
2022-11-22T06:43:49.412Z,27.00
2022-11-22T06:46:18.573Z,28.70
2022-11-22T06:48:46.084Z,28.80
2022-11-22T06:51:21.428Z,28.90
2022-11-22T06:53:49.748Z,28.50
2022-11-22T06:56:20.110Z,28.80
2022-11-22T06:58:48.176Z,28.40
2022-11-22T07:01:18.571Z,25.50
2022-11-22T07:03:46.783Z,23.50
2022-11-22T07:06:15.600Z,24.50
2022-11-22T07:08:43.524Z,24.20
2022-11-22T07:11:15.942Z,24.70
2022-11-22T07:13:43.349Z,24.50
2022-11-22T07:16:13.125Z,26.30
2022-11-22T07:18:40.572Z,24.60
2022-11-22T07:21:13.964Z,25.60
2022-11-22T07:23:43.650Z,25.50
2022-11-22T07:26:12.439Z,24.30
2022-11-22T07:28:39.669Z,24.00
2022-11-22T07:31:08.878Z,25.90
2022-11-22T07:33:36.204Z,26.80
2022-11-22T07:36:08.693Z,23.80
2022-11-22T07:38:36.241Z,26.30
2022-11-22T07:41:04.349Z,23.70
2022-11-22T07:43:32.116Z,23.40
2022-11-22T07:46:00.500Z,23.90
2022-11-22T07:48:27.626Z,25.40
2022-11-22T07:50:54.856Z,25.60
2022-11-22T07:53:21.997Z,26.10
2022-11-22T07:55:49.259Z,24.00
2022-11-22T07:58:16.413Z,24.20
2022-11-22T08:00:43.552Z,23.00
2022-11-22T08:03:14.311Z,21.70
2022-11-22T08:05:44.351Z,22.10
2022-11-22T08:08:11.721Z,22.10
2022-11-22T08:10:38.867Z,21.70
2022-11-22T08:13:06.229Z,21.10
2022-11-22T08:15:33.450Z,22.40
2022-11-22T08:18:00.643Z,21.80
2022-11-22T08:20:27.961Z,21.80
2022-11-22T08:22:55.161Z,21.30
2022-11-22T08:25:22.385Z,20.00
2022-11-22T08:27:49.560Z,18.80
2022-11-22T08:30:16.725Z,20.70
2022-11-22T08:32:43.898Z,18.80
2022-11-22T08:35:11.237Z,17.80
2022-11-22T08:37:38.476Z,16.70
2022-11-22T08:40:06.472Z,17.80
2022-11-22T08:42:33.615Z,16.80
2022-11-22T08:45:00.809Z,15.50
2022-11-22T08:47:27.974Z,14.40
2022-11-22T08:49:55.107Z,12.70
2022-11-22T08:52:22.194Z,11.50
2022-11-22T08:54:49.357Z,10.50
2022-11-22T08:57:16.507Z,11.30
2022-11-22T08:59:43.722Z,10.30
2022-11-22T09:02:11.098Z,11.80
2022-11-22T09:04:38.250Z,12.30
2022-11-22T09:09:52.618Z,12.30
2022-11-22T09:12:19.898Z,12.30
2022-11-22T09:14:47.303Z,11.80
2022-11-22T09:17:17.752Z,12.10
2022-11-22T09:19:45.699Z,11.30
2022-11-22T09:22:12.868Z,12.40
2022-11-22T09:24:40.141Z,12.40
2022-11-22T09:27:07.420Z,13.10
2022-11-22T09:29:34.574Z,13.80
2022-11-22T09:32:03.413Z,13.90
2022-11-22T09:34:30.634Z,12.80
2022-11-22T09:36:57.765Z,13.30
2022-11-22T09:39:24.927Z,12.70
2022-11-22T09:41:52.019Z,13.60
2022-11-22T09:44:57.263Z,13.40
2022-11-22T09:47:48.131Z,12.60
2022-11-22T09:50:38.105Z,12.90
2022-11-22T09:53:13.761Z,11.90
2022-11-22T09:55:56.155Z,12.30
2022-11-22T09:58:33.518Z,12.40
2022-11-22T10:01:27.589Z,11.40
2022-11-22T10:04:21.525Z,12.00
2022-11-22T10:07:21.509Z,12.00
2022-11-22T10:10:06.900Z,12.80
2022-11-22T10:12:41.905Z,11.40
2022-11-22T10:15:27.793Z,11.70
2022-11-22T10:18:00.564Z,11.90
2022-11-22T10:20:30.342Z,12.80
2022-11-22T10:22:58.798Z,12.20
2022-11-22T10:25:39.935Z,12.50
2022-11-22T10:28:33.503Z,10.50
2022-11-22T10:31:09.717Z,10.80
2022-11-22T10:34:03.486Z,10.40
2022-11-22T10:36:51.056Z,9.80
2022-11-22T10:39:40.758Z,11.10
2022-11-22T10:42:30.114Z,10.80
2022-11-22T10:45:22.050Z,11.90
2022-11-22T10:48:02.025Z,11.80
2022-11-22T10:50:48.233Z,11.20
2022-11-22T10:53:27.778Z,11.40
2022-11-22T10:55:57.666Z,11.20
2022-11-22T10:58:53.962Z,10.30
2022-11-22T11:01:49.657Z,9.90
2022-11-22T11:04:18.826Z,10.30
2022-11-22T11:07:17.186Z,9.80
2022-11-22T11:10:20.316Z,9.80
2022-11-22T11:13:13.465Z,10.50
2022-11-22T11:15:55.693Z,16.80
2022-11-22T11:19:10.751Z,9.80
2022-11-22T11:21:38.171Z,9.10
2022-11-22T11:24:15.058Z,9.80
2022-11-22T11:26:54.292Z,9.10
2022-11-22T11:29:24.274Z,8.60
2022-11-22T11:32:09.858Z,8.50
2022-11-22T11:34:38.761Z,7.10
2022-11-22T11:37:06.283Z,7.40
2022-11-22T11:39:36.276Z,6.30
2022-11-22T11:42:24.770Z,7.30
2022-11-22T11:44:52.179Z,8.30
2022-11-22T11:47:33.967Z,8.80
2022-11-22T11:50:01.247Z,8.50
2022-11-22T11:52:29.896Z,8.30
2022-11-22T11:55:02.085Z,8.70
2022-11-22T11:57:36.345Z,8.70
2022-11-22T12:00:06.633Z,8.80
2022-11-22T12:02:40.180Z,9.00
2022-11-22T12:05:26.914Z,8.40
2022-11-22T12:07:54.256Z,10.20
2022-11-22T12:10:31.156Z,9.30
2022-11-22T12:13:24.662Z,9.90
2022-11-22T12:16:33.060Z,10.10
2022-11-22T12:19:24.743Z,9.80
2022-11-22T12:22:03.912Z,10.50
2022-11-22T12:25:03.082Z,10.50
2022-11-22T12:27:27.284Z,11.60
2022-11-22T12:29:54.603Z,10.10
2022-11-22T12:32:30.027Z,10.50
2022-11-22T12:35:09.086Z,10.30
2022-11-22T12:38:03.679Z,10.80
2022-11-22T12:40:41.895Z,11.30
2022-11-22T12:43:18.819Z,11.90
2022-11-22T12:45:52.831Z,10.60
2022-11-22T12:48:45.899Z,12.00
2022-11-22T12:51:42.804Z,11.50
2022-11-22T12:54:16.312Z,12.70
2022-11-22T12:56:54.028Z,27.80
2022-11-22T12:59:28.519Z,14.50
2022-11-22T13:02:11.220Z,14.60
2022-11-22T13:04:50.747Z,15.10
2022-11-22T13:07:22.519Z,17.30
2022-11-22T13:09:55.803Z,17.30
2022-11-22T13:12:30.967Z,19.50
2022-11-22T13:15:00.219Z,22.70
2022-11-22T13:17:33.303Z,20.50
2022-11-22T13:20:15.064Z,19.30
2022-11-22T13:22:57.055Z,23.00
2022-11-22T13:25:45.540Z,26.50
2022-11-22T13:28:16.489Z,22.70
2022-11-22T13:31:06.670Z,23.50
2022-11-22T13:33:36.012Z,22.90
2022-11-22T13:36:25.086Z,27.30
2022-11-22T13:38:57.098Z,26.60
2022-11-22T13:41:48.145Z,26.10
2022-11-22T13:44:24.477Z,21.90
2022-11-22T13:47:04.550Z,19.90
2022-11-22T13:49:48.175Z,18.60
2022-11-22T13:52:15.840Z,18.40
2022-11-22T13:54:56.753Z,20.30
2022-11-22T13:57:36.854Z,23.10
2022-11-22T14:00:16.083Z,22.20
2022-11-22T14:03:11.458Z,24.70
2022-11-22T14:05:42.068Z,24.80
2022-11-22T14:08:40.367Z,28.50
2022-11-22T14:11:23.253Z,28.50
2022-11-22T14:14:08.839Z,29.90
2022-11-22T14:16:44.165Z,29.40
2022-11-22T14:19:11.241Z,28.50
2022-11-22T14:22:10.983Z,29.70
2022-11-22T14:24:56.790Z,32.30
2022-11-22T14:27:29.820Z,29.20
2022-11-22T14:30:15.511Z,26.00
2022-11-22T14:32:49.359Z,25.40
2022-11-22T14:35:29.188Z,24.30
2022-11-22T14:38:07.832Z,24.70
2022-11-22T14:40:40.329Z,25.80
2022-11-22T14:43:29.811Z,24.90
2022-11-22T14:46:37.179Z,28.70
2022-11-22T14:49:13.949Z,35.80
2022-11-22T14:51:42.238Z,39.20
2022-11-22T14:54:22.695Z,41.80
2022-11-22T14:56:50.872Z,51.70
2022-11-22T14:59:56.086Z,47.40
2022-11-22T15:02:47.128Z,48.30
2022-11-22T15:09:10.827Z,45.00
2022-11-22T15:09:11.525Z,47.10
2022-11-22T15:11:35.510Z,46.30
2022-11-22T15:14:33.671Z,48.80
2022-11-22T15:59:44.679Z,54.90
2022-11-22T16:02:18.986Z,55.60
2022-11-22T16:06:09.440Z,56.40
2022-11-22T16:07:47.255Z,51.60
2022-11-22T16:10:17.431Z,52.40
2022-11-22T16:12:44.715Z,58.20
2022-11-22T16:15:30.544Z,56.80
2022-11-22T16:18:13.101Z,53.70
2022-11-22T16:21:01.630Z,55.50
2022-11-22T16:23:30.414Z,58.50
2022-11-22T16:26:19.431Z,59.40
2022-11-22T16:28:48.429Z,57.40
2022-11-22T16:31:22.967Z,57.20
2022-11-22T16:33:51.952Z,62.80
2022-11-22T16:36:20.447Z,59.50
2022-11-22T16:38:47.626Z,57.60
2022-11-22T16:41:24.951Z,58.20
2022-11-22T16:44:06.507Z,59.90
2022-11-22T16:46:33.617Z,58.00
2022-11-22T16:49:00.868Z,57.90
2022-11-22T16:51:30.068Z,58.00
2022-11-22T16:54:00.147Z,60.80
2022-11-22T16:56:29.497Z,62.90
2022-11-22T16:58:57.991Z,64.90
2022-11-22T17:01:30.985Z,61.70
2022-11-22T17:03:59.233Z,60.60
2022-11-22T17:06:28.710Z,64.80
2022-11-22T17:08:58.431Z,65.40
2022-11-22T17:11:31.653Z,69.50
2022-11-22T17:13:59.911Z,74.30
2022-11-22T17:16:27.088Z,77.40
2022-11-22T17:18:54.291Z,82.40
2022-11-22T17:21:26.444Z,84.40
2022-11-22T17:23:56.066Z,83.00
2022-11-22T17:26:23.806Z,79.10
2022-11-22T17:28:51.091Z,76.00
2022-11-22T17:31:20.699Z,78.90
2022-11-22T17:33:56.764Z,75.20
2022-11-22T17:36:34.735Z,73.60
2022-11-22T17:39:04.810Z,69.60
2022-11-22T17:41:33.070Z,72.80
2022-11-22T17:44:00.759Z,73.40
2022-11-22T17:46:30.330Z,71.30
2022-11-22T17:48:59.690Z,68.40
2022-11-22T17:51:28.355Z,68.40
2022-11-22T17:53:58.353Z,66.80
2022-11-22T17:56:26.279Z,68.70
2022-11-22T17:58:53.458Z,69.60
2022-11-22T18:01:22.844Z,76.70
2022-11-22T18:03:50.297Z,72.80
2022-11-22T18:06:21.488Z,64.00
2022-11-22T18:08:48.676Z,60.90
2022-11-22T18:11:16.355Z,55.50
2022-11-22T18:13:44.186Z,53.70
2022-11-22T18:16:14.774Z,58.50
2022-11-22T18:18:56.675Z,80.90
2022-11-22T18:21:25.056Z,58.00
2022-11-22T18:23:52.186Z,55.70
2022-11-22T18:31:54.805Z,52.00
2022-11-22T18:34:23.023Z,51.60
2022-11-22T18:36:56.424Z,50.60
2022-11-22T18:39:28.591Z,56.20
2022-11-22T18:41:56.103Z,52.40
2022-11-22T18:44:23.238Z,50.60
2022-11-22T18:46:50.432Z,54.80
2022-11-22T18:49:17.753Z,52.80
2022-11-22T18:51:45.023Z,52.00
2022-11-22T18:54:12.524Z,49.90
2022-11-22T18:56:40.254Z,53.50
2022-11-22T18:59:10.051Z,55.30
2022-11-22T19:01:37.387Z,61.00
2022-11-22T19:04:05.147Z,64.40
2022-11-22T19:06:32.457Z,66.10
2022-11-22T19:09:00.948Z,62.30
2022-11-22T19:11:30.719Z,85.70
2022-11-22T19:13:58.174Z,61.00
2022-11-22T19:16:28.037Z,59.80
2022-11-22T19:18:55.535Z,60.30
2022-11-22T19:21:24.634Z,61.00
2022-11-22T19:23:52.537Z,61.40
2022-11-22T19:26:22.554Z,64.90
2022-11-22T19:28:53.635Z,65.50
2022-11-22T19:31:22.246Z,73.30
2022-11-22T19:33:49.794Z,92.00
2022-11-22T19:36:19.347Z,69.40
2022-11-22T19:38:46.991Z,68.40
2022-11-22T19:41:19.306Z,68.90
2022-11-22T19:43:48.059Z,74.50
2022-11-22T19:46:15.802Z,77.50
2022-11-22T19:48:46.969Z,78.50
2022-11-22T19:51:15.496Z,75.50
2022-11-22T19:53:43.168Z,76.30
2022-11-22T19:56:15.921Z,76.00
2022-11-22T19:58:44.773Z,77.10
2022-11-22T20:01:14.194Z,70.00
2022-11-22T20:03:43.423Z,69.70
2022-11-22T20:06:12.809Z,74.10
2022-11-22T20:08:40.184Z,74.50
2022-11-22T20:11:10.198Z,73.90
2022-11-22T20:13:40.226Z,76.60
2022-11-22T20:16:07.732Z,77.50
2022-11-22T20:18:35.523Z,78.10
2022-11-22T20:21:05.214Z,80.80
2022-11-22T20:23:33.587Z,83.10
2022-11-22T20:26:06.253Z,83.80
2022-11-22T20:28:33.471Z,83.20
2022-11-22T20:31:18.481Z,85.60
2022-11-22T20:33:48.898Z,86.40
2022-11-22T20:36:22.507Z,87.90
2022-11-22T20:38:50.953Z,90.90
2022-11-22T20:41:20.149Z,91.40
2022-11-22T20:43:47.526Z,92.40
2022-11-22T20:46:17.029Z,93.20
2022-11-22T20:48:47.730Z,94.50
2022-11-22T20:51:18.737Z,94.30
2022-11-22T20:53:46.539Z,93.20
2022-11-22T20:56:14.172Z,93.50
2022-11-22T20:58:42.244Z,91.50
2022-11-22T21:01:17.511Z,91.30
2022-11-22T21:03:45.646Z,91.50
2022-11-22T21:06:14.068Z,91.10
2022-11-22T21:08:41.834Z,88.40
2022-11-22T21:11:16.436Z,88.40
2022-11-22T21:13:44.988Z,90.50
2022-11-22T21:16:24.750Z,90.70
2022-11-22T21:18:53.392Z,89.60
2022-11-22T21:21:24.663Z,90.40
2022-11-22T21:23:53.952Z,91.60
2022-11-22T21:26:21.954Z,90.70
2022-11-22T21:28:49.783Z,89.60
2022-11-22T21:31:17.514Z,90.40
2022-11-22T21:33:45.772Z,91.40
2022-11-22T21:36:13.726Z,90.30
2022-11-22T21:38:41.258Z,92.10
2022-11-22T21:44:00.644Z,93.60
2022-11-22T21:46:27.817Z,93.30
2022-11-22T21:48:55.956Z,94.00
2022-11-22T21:51:25.845Z,93.80
2022-11-22T21:53:59.567Z,93.90
2022-11-22T21:56:27.049Z,93.80
2022-11-22T21:58:54.574Z,96.10
2022-11-22T22:01:22.497Z,95.40
2022-11-22T22:03:49.831Z,96.60
2022-11-22T22:06:17.127Z,95.20
2022-11-22T22:08:44.292Z,93.60
2022-11-22T22:11:12.508Z,95.20
2022-11-22T22:13:39.691Z,95.10
2022-11-22T22:16:07.387Z,93.90
2022-11-22T22:18:37.561Z,94.30
2022-11-22T22:21:06.159Z,96.00
2022-11-22T22:23:38.160Z,95.00
2022-11-22T22:26:07.749Z,95.90
2022-11-22T22:28:36.617Z,94.40
2022-11-22T22:31:14.442Z,95.10
2022-11-22T22:33:42.175Z,94.10
2022-11-22T22:36:11.419Z,92.90
2022-11-22T22:38:38.794Z,93.80
2022-11-22T22:41:06.806Z,91.00
2022-11-22T22:43:39.992Z,89.10
2022-11-22T22:46:12.490Z,91.00
2022-11-22T22:48:40.342Z,90.80
2022-11-22T22:51:19.158Z,84.10
2022-11-22T22:53:46.983Z,86.30
2022-11-22T22:56:15.936Z,90.80
2022-11-22T22:58:43.407Z,89.50
2022-11-22T23:01:15.083Z,89.50
2022-11-22T23:03:42.323Z,86.40
2022-11-22T23:06:11.783Z,86.90
2022-11-22T23:08:39.617Z,87.10
2022-11-22T23:11:09.265Z,87.00
2022-11-22T23:13:38.366Z,89.30
2022-11-22T23:16:07.416Z,89.60
2022-11-22T23:18:36.545Z,88.40
2022-11-22T23:21:06.281Z,91.00
2022-11-22T23:23:33.765Z,88.50
2022-11-22T23:26:06.686Z,87.10
2022-11-22T23:28:34.090Z,90.00
2022-11-22T23:31:09.520Z,92.20
2022-11-22T23:33:37.101Z,91.70
2022-11-22T23:36:06.545Z,91.40
2022-11-22T23:38:34.056Z,92.70
2022-11-22T23:41:01.807Z,93.30
2022-11-22T23:43:29.412Z,91.90
2022-11-22T23:45:58.801Z,91.00
2022-11-22T23:48:26.939Z,91.90
2022-11-22T23:50:54.390Z,88.20
2022-11-22T23:53:21.903Z,89.90
2022-11-22T23:55:49.019Z,84.40
2022-11-22T23:58:16.236Z,87.70
